KEGE/EGE METAR and TAF weather

Enter ICAO airport designator
Station Type Date Time Source
KEGE METAR 2023/02/05 14:56 UTC NOAA

KEGE 051456Z 10006KT 10SM CLR M12/M14 A3021 RMK AO2 SLP137 T11171139 56008


Station Type Date Time Source
KEGE Decoded METAR 2023/02/05 14:56 UTC NOAA

Eagle County Regional, CO, United States (KEGE) 39-39N 106-55W
Feb 05, 2023 - 09:56 AM EST / 2023.02.05 1456 UTC
Wind: from the E (100 degrees) at 7 MPH (6 KT):0
Visibility: 10 mile(s):0
Sky conditions: clear
Temperature: 10.9 F (-11.7 C)
Windchill: 0 F (-18 C):1
Dew Point: 7.0 F (-13.9 C)
Relative Humidity: 83%
Pressure (altimeter): 30.21 in. Hg (1023 hPa)
Pressure tendency: 0.02 inches (0.8 hPa) lower than three hours ago
ob: KEGE 051456Z 10006KT 10SM CLR M12/M14 A3021 RMK AO2 SLP137 T11171139 56008
cycle: 15

Station Type Date Time Source
KEGE TAF 2023/02/05 12:22 UTC NOAA

TAF KEGE 051120Z 0512/0612 23003KT P6SM BKN250
FM051900 17007KT P6SM FEW250
FM052100 23011KT P6SM FEW250
FM060300 20007KT P6SM BKN110
FM060600 23007KT P6SM OVC050
FM060900 25007KT 2SM -SN BR OVC020

Example: see airport list